sensor_id;sensor_type;location;lat;lon;timestamp;temperature;humidity
44886;DHT22;36669;51.428;21.162;2022-08-01T00:01:31;14.90;99.90
44886;DHT22;36669;51.428;21.162;2022-08-01T00:03:59;14.90;99.90
44886;DHT22;36669;51.428;21.162;2022-08-01T00:06:27;14.90;99.90
44886;DHT22;36669;51.428;21.162;2022-08-01T00:08:52;14.90;99.90
44886;DHT22;36669;51.428;21.162;2022-08-01T00:11:19;14.90;99.90
44886;DHT22;36669;51.428;21.162;2022-08-01T00:13:48;14.90;99.90
44886;DHT22;36669;51.428;21.162;2022-08-01T00:16:15;14.90;99.90
44886;DHT22;36669;51.428;21.162;2022-08-01T00:18:43;15.00;99.90
44886;DHT22;36669;51.428;21.162;2022-08-01T00:21:09;15.00;99.90
44886;DHT22;36669;51.428;21.162;2022-08-01T00:23:37;14.90;99.90
44886;DHT22;36669;51.428;21.162;2022-08-01T00:26:04;14.90;99.90
44886;DHT22;36669;51.428;21.162;2022-08-01T00:28:30;14.90;99.90
44886;DHT22;36669;51.428;21.162;2022-08-01T00:30:57;14.90;99.90
44886;DHT22;36669;51.428;21.162;2022-08-01T00:33:23;14.90;99.90
44886;DHT22;36669;51.428;21.162;2022-08-01T00:35:51;14.90;99.90
44886;DHT22;36669;51.428;21.162;2022-08-01T00:38:17;14.90;99.90
44886;DHT22;36669;51.428;21.162;2022-08-01T00:40:44;14.90;99.90
44886;DHT22;36669;51.428;21.162;2022-08-01T00:43:12;14.80;99.90
44886;DHT22;36669;51.428;21.162;2022-08-01T00:45:39;14.80;99.90
44886;DHT22;36669;51.428;21.162;2022-08-01T00:48:05;14.80;99.90
44886;DHT22;36669;51.428;21.162;2022-08-01T00:50:33;14.90;99.90
44886;DHT22;36669;51.428;21.162;2022-08-01T00:52:59;14.90;99.90
44886;DHT22;36669;51.428;21.162;2022-08-01T00:55:29;14.80;99.90
44886;DHT22;36669;51.428;21.162;2022-08-01T00:57:59;14.80;99.90
44886;DHT22;36669;51.428;21.162;2022-08-01T01:00:26;14.80;99.90
44886;DHT22;36669;51.428;21.162;2022-08-01T01:02:53;14.80;99.90
44886;DHT22;36669;51.428;21.162;2022-08-01T01:05:23;14.80;99.90
44886;DHT22;36669;51.428;21.162;2022-08-01T01:08:22;14.80;99.90
44886;DHT22;36669;51.428;21.162;2022-08-01T01:11:13;14.80;99.90
44886;DHT22;36669;51.428;21.162;2022-08-01T01:13:53;14.80;99.90
44886;DHT22;36669;51.428;21.162;2022-08-01T01:16:38;14.80;99.90
44886;DHT22;36669;51.428;21.162;2022-08-01T01:19:10;14.80;99.90
44886;DHT22;36669;51.428;21.162;2022-08-01T01:22:00;14.80;99.90
44886;DHT22;36669;51.428;21.162;2022-08-01T01:28:27;14.80;99.90
44886;DHT22;36669;51.428;21.162;2022-08-01T01:30:57;14.80;99.90
44886;DHT22;36669;51.428;21.162;2022-08-01T01:33:28;14.70;99.90
44886;DHT22;36669;51.428;21.162;2022-08-01T01:36:02;14.80;99.90
44886;DHT22;36669;51.428;21.162;2022-08-01T01:38:35;14.80;99.90
44886;DHT22;36669;51.428;21.162;2022-08-01T01:41:04;14.80;99.90
44886;DHT22;36669;51.428;21.162;2022-08-01T01:43:32;14.80;99.90
44886;DHT22;36669;51.428;21.162;2022-08-01T01:46:00;14.80;99.90
44886;DHT22;36669;51.428;21.162;2022-08-01T01:48:29;14.80;99.90
44886;DHT22;36669;51.428;21.162;2022-08-01T01:50:57;14.80;99.90
44886;DHT22;36669;51.428;21.162;2022-08-01T01:53:28;14.80;99.90
44886;DHT22;36669;51.428;21.162;2022-08-01T01:56:06;14.80;99.90
44886;DHT22;36669;51.428;21.162;2022-08-01T01:58:34;14.80;99.90
44886;DHT22;36669;51.428;21.162;2022-08-01T02:01:04;14.80;99.90
44886;DHT22;36669;51.428;21.162;2022-08-01T02:03:31;14.80;99.90
44886;DHT22;36669;51.428;21.162;2022-08-01T02:06:02;14.80;99.90
44886;DHT22;36669;51.428;21.162;2022-08-01T02:08:31;14.80;99.90
44886;DHT22;36669;51.428;21.162;2022-08-01T02:11:00;14.80;99.90
44886;DHT22;36669;51.428;21.162;2022-08-01T02:13:30;14.80;99.90
44886;DHT22;36669;51.428;21.162;2022-08-01T02:16:01;14.90;99.90
44886;DHT22;36669;51.428;21.162;2022-08-01T02:18:38;14.90;99.90
44886;DHT22;36669;51.428;21.162;2022-08-01T02:21:09;14.80;99.90
44886;DHT22;36669;51.428;21.162;2022-08-01T02:23:36;14.80;99.90
44886;DHT22;36669;51.428;21.162;2022-08-01T02:26:13;14.90;99.90
44886;DHT22;36669;51.428;21.162;2022-08-01T02:28:59;14.90;99.90
44886;DHT22;36669;51.428;21.162;2022-08-01T02:31:41;14.90;99.90
44886;DHT22;36669;51.428;21.162;2022-08-01T02:34:11;14.80;99.90
44886;DHT22;36669;51.428;21.162;2022-08-01T02:36:39;14.90;99.90
44886;DHT22;36669;51.428;21.162;2022-08-01T02:39:12;14.90;99.90
44886;DHT22;36669;51.428;21.162;2022-08-01T02:41:39;14.90;99.90
44886;DHT22;36669;51.428;21.162;2022-08-01T02:44:08;14.90;99.90
44886;DHT22;36669;51.428;21.162;2022-08-01T02:46:45;14.90;99.90
44886;DHT22;36669;51.428;21.162;2022-08-01T02:49:16;14.90;99.90
44886;DHT22;36669;51.428;21.162;2022-08-01T02:51:47;14.90;99.90
44886;DHT22;36669;51.428;21.162;2022-08-01T02:54:18;14.90;99.90
44886;DHT22;36669;51.428;21.162;2022-08-01T02:56:48;14.90;99.90
44886;DHT22;36669;51.428;21.162;2022-08-01T02:59:27;14.90;99.90
44886;DHT22;36669;51.428;21.162;2022-08-01T03:01:59;14.90;99.90
44886;DHT22;36669;51.428;21.162;2022-08-01T03:04:29;14.90;99.90
44886;DHT22;36669;51.428;21.162;2022-08-01T03:06:57;14.90;99.90
44886;DHT22;36669;51.428;21.162;2022-08-01T03:09:25;14.90;99.90
44886;DHT22;36669;51.428;21.162;2022-08-01T03:11:52;14.90;99.90
44886;DHT22;36669;51.428;21.162;2022-08-01T03:14:22;14.90;99.90
44886;DHT22;36669;51.428;21.162;2022-08-01T03:16:53;14.90;99.90
44886;DHT22;36669;51.428;21.162;2022-08-01T03:19:22;14.90;99.90
44886;DHT22;36669;51.428;21.162;2022-08-01T03:21:54;14.90;99.90
44886;DHT22;36669;51.428;21.162;2022-08-01T03:24:23;14.90;99.90
44886;DHT22;36669;51.428;21.162;2022-08-01T03:26:51;14.90;99.90
44886;DHT22;36669;51.428;21.162;2022-08-01T03:29:22;14.90;99.90
44886;DHT22;36669;51.428;21.162;2022-08-01T03:31:52;15.00;99.90
44886;DHT22;36669;51.428;21.162;2022-08-01T03:34:19;14.90;99.90
44886;DHT22;36669;51.428;21.162;2022-08-01T03:42:52;15.00;99.90
44886;DHT22;36669;51.428;21.162;2022-08-01T03:45:37;15.00;99.90
44886;DHT22;36669;51.428;21.162;2022-08-01T03:48:16;15.00;99.90
44886;DHT22;36669;51.428;21.162;2022-08-01T03:50:51;15.00;99.90
44886;DHT22;36669;51.428;21.162;2022-08-01T03:53:25;15.00;99.90
44886;DHT22;36669;51.428;21.162;2022-08-01T03:56:11;14.90;99.90
44886;DHT22;36669;51.428;21.162;2022-08-01T03:58:42;14.90;99.90
44886;DHT22;36669;51.428;21.162;2022-08-01T04:01:12;14.90;99.90
44886;DHT22;36669;51.428;21.162;2022-08-01T04:03:38;14.90;99.90
44886;DHT22;36669;51.428;21.162;2022-08-01T04:06:07;14.90;99.90
44886;DHT22;36669;51.428;21.162;2022-08-01T04:08:40;14.90;99.90
44886;DHT22;36669;51.428;21.162;2022-08-01T04:11:07;14.90;99.90
44886;DHT22;36669;51.428;21.162;2022-08-01T04:13:35;15.00;99.90
44886;DHT22;36669;51.428;21.162;2022-08-01T04:16:00;14.90;99.90
44886;DHT22;36669;51.428;21.162;2022-08-01T04:18:27;15.00;99.90
44886;DHT22;36669;51.428;21.162;2022-08-01T04:20:54;15.00;99.90
44886;DHT22;36669;51.428;21.162;2022-08-01T04:23:24;15.00;99.90
44886;DHT22;36669;51.428;21.162;2022-08-01T04:25:52;15.00;99.90
44886;DHT22;36669;51.428;21.162;2022-08-01T04:28:22;15.00;99.90
44886;DHT22;36669;51.428;21.162;2022-08-01T04:30:52;15.00;99.90
44886;DHT22;36669;51.428;21.162;2022-08-01T04:33:25;15.00;99.90
44886;DHT22;36669;51.428;21.162;2022-08-01T04:36:08;15.00;99.90
44886;DHT22;36669;51.428;21.162;2022-08-01T04:38:37;15.00;99.90
44886;DHT22;36669;51.428;21.162;2022-08-01T04:41:07;15.00;99.90
44886;DHT22;36669;51.428;21.162;2022-08-01T04:43:38;15.00;99.90
44886;DHT22;36669;51.428;21.162;2022-08-01T04:46:12;15.00;99.90
44886;DHT22;36669;51.428;21.162;2022-08-01T04:48:49;14.90;99.90
44886;DHT22;36669;51.428;21.162;2022-08-01T04:51:17;15.00;99.90
44886;DHT22;36669;51.428;21.162;2022-08-01T04:53:48;15.00;99.90
44886;DHT22;36669;51.428;21.162;2022-08-01T04:56:15;15.00;99.90
44886;DHT22;36669;51.428;21.162;2022-08-01T04:58:44;14.90;99.90
44886;DHT22;36669;51.428;21.162;2022-08-01T05:01:10;14.90;99.90
44886;DHT22;36669;51.428;21.162;2022-08-01T05:03:38;14.90;99.90
44886;DHT22;36669;51.428;21.162;2022-08-01T05:06:07;14.90;99.90
44886;DHT22;36669;51.428;21.162;2022-08-01T05:08:34;14.90;99.90
44886;DHT22;36669;51.428;21.162;2022-08-01T05:11:01;14.90;99.90
44886;DHT22;36669;51.428;21.162;2022-08-01T05:13:28;15.00;99.90
44886;DHT22;36669;51.428;21.162;2022-08-01T05:15:55;14.90;99.90
44886;DHT22;36669;51.428;21.162;2022-08-01T05:18:23;14.90;99.90
44886;DHT22;36669;51.428;21.162;2022-08-01T05:20:51;14.90;99.90
44886;DHT22;36669;51.428;21.162;2022-08-01T05:23:19;14.80;99.90
44886;DHT22;36669;51.428;21.162;2022-08-01T05:25:46;14.80;99.90
44886;DHT22;36669;51.428;21.162;2022-08-01T05:28:13;14.80;99.90
44886;DHT22;36669;51.428;21.162;2022-08-01T05:30:40;14.70;99.90
44886;DHT22;36669;51.428;21.162;2022-08-01T05:33:07;14.80;99.90
44886;DHT22;36669;51.428;21.162;2022-08-01T05:35:35;14.80;99.90
44886;DHT22;36669;51.428;21.162;2022-08-01T05:38:01;14.80;99.90
44886;DHT22;36669;51.428;21.162;2022-08-01T05:40:29;14.70;99.90
44886;DHT22;36669;51.428;21.162;2022-08-01T05:42:56;14.70;99.90
44886;DHT22;36669;51.428;21.162;2022-08-01T05:45:22;14.70;99.90
44886;DHT22;36669;51.428;21.162;2022-08-01T05:47:49;14.70;99.90
44886;DHT22;36669;51.428;21.162;2022-08-01T05:50:17;14.70;99.90
44886;DHT22;36669;51.428;21.162;2022-08-01T05:52:45;14.70;99.90
44886;DHT22;36669;51.428;21.162;2022-08-01T05:55:12;14.80;99.90
44886;DHT22;36669;51.428;21.162;2022-08-01T05:57:42;14.80;99.90
44886;DHT22;36669;51.428;21.162;2022-08-01T06:00:09;14.80;99.90
44886;DHT22;36669;51.428;21.162;2022-08-01T06:02:40;14.90;99.90
44886;DHT22;36669;51.428;21.162;2022-08-01T06:05:07;15.00;99.90
44886;DHT22;36669;51.428;21.162;2022-08-01T06:07:35;15.10;99.90
44886;DHT22;36669;51.428;21.162;2022-08-01T06:10:03;15.20;99.90
44886;DHT22;36669;51.428;21.162;2022-08-01T06:12:33;15.30;99.90
44886;DHT22;36669;51.428;21.162;2022-08-01T06:15:02;15.50;99.90
44886;DHT22;36669;51.428;21.162;2022-08-01T06:17:28;15.60;99.90
44886;DHT22;36669;51.428;21.162;2022-08-01T06:19:55;15.80;99.90
44886;DHT22;36669;51.428;21.162;2022-08-01T06:22:23;15.90;99.90
44886;DHT22;36669;51.428;21.162;2022-08-01T06:24:50;16.00;99.90
44886;DHT22;36669;51.428;21.162;2022-08-01T06:27:17;16.00;99.90
44886;DHT22;36669;51.428;21.162;2022-08-01T06:29:44;16.00;99.90
44886;DHT22;36669;51.428;21.162;2022-08-01T06:32:11;16.10;99.90
44886;DHT22;36669;51.428;21.162;2022-08-01T06:34:37;16.20;99.90
44886;DHT22;36669;51.428;21.162;2022-08-01T06:37:05;16.30;99.90
44886;DHT22;36669;51.428;21.162;2022-08-01T06:39:33;16.40;99.90
44886;DHT22;36669;51.428;21.162;2022-08-01T06:42:00;16.50;99.90
44886;DHT22;36669;51.428;21.162;2022-08-01T06:44:27;16.70;99.90
44886;DHT22;36669;51.428;21.162;2022-08-01T06:46:54;16.80;99.90
44886;DHT22;36669;51.428;21.162;2022-08-01T06:49:21;17.00;99.90
44886;DHT22;36669;51.428;21.162;2022-08-01T06:51:48;17.10;99.90
44886;DHT22;36669;51.428;21.162;2022-08-01T06:54:15;17.10;99.90
44886;DHT22;36669;51.428;21.162;2022-08-01T06:56:42;17.30;99.90
44886;DHT22;36669;51.428;21.162;2022-08-01T06:59:10;17.30;99.90
44886;DHT22;36669;51.428;21.162;2022-08-01T07:01:38;17.30;99.90
44886;DHT22;36669;51.428;21.162;2022-08-01T07:04:05;17.40;99.90
44886;DHT22;36669;51.428;21.162;2022-08-01T07:06:32;17.40;99.90
44886;DHT22;36669;51.428;21.162;2022-08-01T07:09:00;17.40;99.90
44886;DHT22;36669;51.428;21.162;2022-08-01T07:11:27;17.50;99.90
44886;DHT22;36669;51.428;21.162;2022-08-01T07:13:54;17.70;99.90
44886;DHT22;36669;51.428;21.162;2022-08-01T07:16:21;17.70;99.90
44886;DHT22;36669;51.428;21.162;2022-08-01T07:18:47;17.70;99.90
44886;DHT22;36669;51.428;21.162;2022-08-01T07:21:14;17.70;99.90
44886;DHT22;36669;51.428;21.162;2022-08-01T07:23:41;17.80;99.90
44886;DHT22;36669;51.428;21.162;2022-08-01T07:26:07;17.90;99.90
44886;DHT22;36669;51.428;21.162;2022-08-01T07:28:34;17.90;99.90
44886;DHT22;36669;51.428;21.162;2022-08-01T07:31:01;17.90;99.90
44886;DHT22;36669;51.428;21.162;2022-08-01T07:33:28;17.90;99.90
44886;DHT22;36669;51.428;21.162;2022-08-01T07:35:54;18.00;99.90
44886;DHT22;36669;51.428;21.162;2022-08-01T07:38:21;18.10;99.90
44886;DHT22;36669;51.428;21.162;2022-08-01T07:40:47;18.10;99.90
44886;DHT22;36669;51.428;21.162;2022-08-01T07:43:13;18.20;99.90
44886;DHT22;36669;51.428;21.162;2022-08-01T07:45:42;18.20;99.90
44886;DHT22;36669;51.428;21.162;2022-08-01T07:48:09;18.30;99.90
44886;DHT22;36669;51.428;21.162;2022-08-01T07:50:35;18.30;99.90
44886;DHT22;36669;51.428;21.162;2022-08-01T07:53:02;18.30;99.90
44886;DHT22;36669;51.428;21.162;2022-08-01T07:55:28;18.40;99.90
44886;DHT22;36669;51.428;21.162;2022-08-01T07:57:54;18.50;99.90
44886;DHT22;36669;51.428;21.162;2022-08-01T08:00:20;18.60;99.90
44886;DHT22;36669;51.428;21.162;2022-08-01T08:02:47;18.60;99.90
44886;DHT22;36669;51.428;21.162;2022-08-01T08:05:16;18.60;99.90
44886;DHT22;36669;51.428;21.162;2022-08-01T08:07:43;18.60;99.90
44886;DHT22;36669;51.428;21.162;2022-08-01T08:10:10;18.60;99.90
44886;DHT22;36669;51.428;21.162;2022-08-01T08:12:37;18.60;99.90
44886;DHT22;36669;51.428;21.162;2022-08-01T08:15:05;18.60;99.90
44886;DHT22;36669;51.428;21.162;2022-08-01T08:17:32;18.60;99.90
44886;DHT22;36669;51.428;21.162;2022-08-01T08:20:00;18.70;99.90
44886;DHT22;36669;51.428;21.162;2022-08-01T08:22:28;18.80;99.90
44886;DHT22;36669;51.428;21.162;2022-08-01T08:24:55;18.80;99.90
44886;DHT22;36669;51.428;21.162;2022-08-01T08:27:21;18.80;99.90
44886;DHT22;36669;51.428;21.162;2022-08-01T08:29:48;18.90;99.90
44886;DHT22;36669;51.428;21.162;2022-08-01T08:32:16;18.90;99.90
44886;DHT22;36669;51.428;21.162;2022-08-01T08:34:45;19.00;99.90
44886;DHT22;36669;51.428;21.162;2022-08-01T08:37:11;19.10;99.90
44886;DHT22;36669;51.428;21.162;2022-08-01T08:39:38;19.10;99.90
44886;DHT22;36669;51.428;21.162;2022-08-01T08:42:09;19.20;99.90
44886;DHT22;36669;51.428;21.162;2022-08-01T08:44:39;19.20;99.90
44886;DHT22;36669;51.428;21.162;2022-08-01T08:47:07;19.30;99.90
44886;DHT22;36669;51.428;21.162;2022-08-01T08:49:35;19.40;99.90
44886;DHT22;36669;51.428;21.162;2022-08-01T08:52:13;19.40;99.90
44886;DHT22;36669;51.428;21.162;2022-08-01T08:54:42;19.40;99.90
44886;DHT22;36669;51.428;21.162;2022-08-01T08:57:10;19.40;99.90
44886;DHT22;36669;51.428;21.162;2022-08-01T08:59:40;19.40;99.90
44886;DHT22;36669;51.428;21.162;2022-08-01T09:02:07;19.40;99.90
44886;DHT22;36669;51.428;21.162;2022-08-01T09:04:33;19.70;99.90
44886;DHT22;36669;51.428;21.162;2022-08-01T09:07:01;19.80;99.90
44886;DHT22;36669;51.428;21.162;2022-08-01T09:09:29;19.90;99.90
44886;DHT22;36669;51.428;21.162;2022-08-01T09:11:56;19.80;99.90
44886;DHT22;36669;51.428;21.162;2022-08-01T09:14:24;19.90;99.90
44886;DHT22;36669;51.428;21.162;2022-08-01T09:17:15;20.00;99.90
44886;DHT22;36669;51.428;21.162;2022-08-01T09:19:47;20.00;99.90
44886;DHT22;36669;51.428;21.162;2022-08-01T09:22:17;20.00;99.90
44886;DHT22;36669;51.428;21.162;2022-08-01T09:25:08;20.00;99.90
44886;DHT22;36669;51.428;21.162;2022-08-01T09:27:46;20.20;99.90
44886;DHT22;36669;51.428;21.162;2022-08-01T09:30:16;20.30;99.90
44886;DHT22;36669;51.428;21.162;2022-08-01T09:35:26;20.50;99.90
44886;DHT22;36669;51.428;21.162;2022-08-01T09:38:18;20.40;99.90
44886;DHT22;36669;51.428;21.162;2022-08-01T09:40:51;20.50;99.90
44886;DHT22;36669;51.428;21.162;2022-08-01T09:43:21;20.70;99.90
44886;DHT22;36669;51.428;21.162;2022-08-01T09:45:47;20.80;99.90
44886;DHT22;36669;51.428;21.162;2022-08-01T09:48:14;20.80;99.90
44886;DHT22;36669;51.428;21.162;2022-08-01T09:50:42;20.90;99.90
44886;DHT22;36669;51.428;21.162;2022-08-01T09:53:10;20.90;99.90
44886;DHT22;36669;51.428;21.162;2022-08-01T09:55:38;21.00;99.90
44886;DHT22;36669;51.428;21.162;2022-08-01T09:58:07;21.10;99.90
44886;DHT22;36669;51.428;21.162;2022-08-01T10:00:35;21.20;99.90
44886;DHT22;36669;51.428;21.162;2022-08-01T10:03:23;21.30;99.90
44886;DHT22;36669;51.428;21.162;2022-08-01T10:05:51;21.40;99.90
44886;DHT22;36669;51.428;21.162;2022-08-01T10:08:18;21.40;99.90
44886;DHT22;36669;51.428;21.162;2022-08-01T10:11:13;21.40;99.90
44886;DHT22;36669;51.428;21.162;2022-08-01T10:13:40;21.60;99.90
44886;DHT22;36669;51.428;21.162;2022-08-01T10:16:08;21.50;99.90
44886;DHT22;36669;51.428;21.162;2022-08-01T10:18:37;21.50;99.90
44886;DHT22;36669;51.428;21.162;2022-08-01T10:21:05;21.40;99.90
44886;DHT22;36669;51.428;21.162;2022-08-01T10:23:34;21.40;99.90
44886;DHT22;36669;51.428;21.162;2022-08-01T10:26:05;21.50;99.90
44886;DHT22;36669;51.428;21.162;2022-08-01T10:28:35;21.80;99.90
44886;DHT22;36669;51.428;21.162;2022-08-01T10:31:22;21.90;99.90
44886;DHT22;36669;51.428;21.162;2022-08-01T10:33:50;22.10;99.90
44886;DHT22;36669;51.428;21.162;2022-08-01T10:36:27;22.10;99.90
44886;DHT22;36669;51.428;21.162;2022-08-01T10:38:56;22.00;99.90
44886;DHT22;36669;51.428;21.162;2022-08-01T10:41:24;22.30;99.90
44886;DHT22;36669;51.428;21.162;2022-08-01T10:43:51;22.40;99.90
44886;DHT22;36669;51.428;21.162;2022-08-01T10:46:20;22.40;99.90
44886;DHT22;36669;51.428;21.162;2022-08-01T10:49:04;22.50;99.90
44886;DHT22;36669;51.428;21.162;2022-08-01T10:51:36;22.40;99.90
44886;DHT22;36669;51.428;21.162;2022-08-01T10:54:05;22.50;99.90
44886;DHT22;36669;51.428;21.162;2022-08-01T10:56:51;22.70;99.90
44886;DHT22;36669;51.428;21.162;2022-08-01T10:59:26;22.80;99.90
44886;DHT22;36669;51.428;21.162;2022-08-01T11:02:00;22.90;99.90
44886;DHT22;36669;51.428;21.162;2022-08-01T11:05:02;22.90;99.90
44886;DHT22;36669;51.428;21.162;2022-08-01T11:07:48;23.40;99.90
44886;DHT22;36669;51.428;21.162;2022-08-01T11:10:38;23.60;99.90
44886;DHT22;36669;51.428;21.162;2022-08-01T11:13:06;23.80;99.90
44886;DHT22;36669;51.428;21.162;2022-08-01T11:15:34;23.90;99.90
44886;DHT22;36669;51.428;21.162;2022-08-01T11:18:30;23.80;99.90
44886;DHT22;36669;51.428;21.162;2022-08-01T11:20:59;23.50;99.90
44886;DHT22;36669;51.428;21.162;2022-08-01T11:23:33;23.60;99.90
44886;DHT22;36669;51.428;21.162;2022-08-01T11:26:13;23.50;99.90
44886;DHT22;36669;51.428;21.162;2022-08-01T11:28:42;23.30;99.90
44886;DHT22;36669;51.428;21.162;2022-08-01T11:33:49;23.60;99.90
44886;DHT22;36669;51.428;21.162;2022-08-01T11:36:19;23.70;99.90
44886;DHT22;36669;51.428;21.162;2022-08-01T11:39:11;24.10;99.90
44886;DHT22;36669;51.428;21.162;2022-08-01T11:41:40;24.80;99.90
44886;DHT22;36669;51.428;21.162;2022-08-01T11:44:27;24.70;99.90
44886;DHT22;36669;51.428;21.162;2022-08-01T11:47:06;24.70;99.90
44886;DHT22;36669;51.428;21.162;2022-08-01T11:49:48;25.00;99.90
44886;DHT22;36669;51.428;21.162;2022-08-01T11:52:26;24.90;99.90
44886;DHT22;36669;51.428;21.162;2022-08-01T11:55:05;25.20;99.90
44886;DHT22;36669;51.428;21.162;2022-08-01T11:57:35;25.50;99.90
44886;DHT22;36669;51.428;21.162;2022-08-01T12:00:12;25.50;99.90
44886;DHT22;36669;51.428;21.162;2022-08-01T12:02:44;25.30;99.90
44886;DHT22;36669;51.428;21.162;2022-08-01T12:05:12;24.80;99.90
44886;DHT22;36669;51.428;21.162;2022-08-01T12:07:42;24.50;99.90
44886;DHT22;36669;51.428;21.162;2022-08-01T12:10:14;24.30;99.90
44886;DHT22;36669;51.428;21.162;2022-08-01T12:12:56;24.50;99.90
44886;DHT22;36669;51.428;21.162;2022-08-01T12:15:33;24.90;99.90
44886;DHT22;36669;51.428;21.162;2022-08-01T12:18:10;24.90;99.90
44886;DHT22;36669;51.428;21.162;2022-08-01T12:20:45;24.60;99.90
44886;DHT22;36669;51.428;21.162;2022-08-01T12:23:16;24.30;99.90
44886;DHT22;36669;51.428;21.162;2022-08-01T12:25:44;24.30;99.90
44886;DHT22;36669;51.428;21.162;2022-08-01T12:28:12;24.50;99.90
44886;DHT22;36669;51.428;21.162;2022-08-01T12:30:39;24.50;99.90
44886;DHT22;36669;51.428;21.162;2022-08-01T12:33:19;24.80;99.90
44886;DHT22;36669;51.428;21.162;2022-08-01T12:35:46;25.00;99.90
44886;DHT22;36669;51.428;21.162;2022-08-01T12:38:21;25.00;99.90
44886;DHT22;36669;51.428;21.162;2022-08-01T12:40:48;25.00;99.90
44886;DHT22;36669;51.428;21.162;2022-08-01T12:43:19;24.90;99.90
44886;DHT22;36669;51.428;21.162;2022-08-01T12:45:58;24.80;99.90
44886;DHT22;36669;51.428;21.162;2022-08-01T12:48:27;25.50;99.90
44886;DHT22;36669;51.428;21.162;2022-08-01T12:50:58;26.10;99.90
44886;DHT22;36669;51.428;21.162;2022-08-01T12:53:25;26.30;99.90
44886;DHT22;36669;51.428;21.162;2022-08-01T12:56:02;26.80;99.90
44886;DHT22;36669;51.428;21.162;2022-08-01T12:58:33;27.10;99.90
44886;DHT22;36669;51.428;21.162;2022-08-01T13:01:08;27.40;99.90
44886;DHT22;36669;51.428;21.162;2022-08-01T13:03:37;27.00;99.90
44886;DHT22;36669;51.428;21.162;2022-08-01T13:06:11;26.60;99.90
44886;DHT22;36669;51.428;21.162;2022-08-01T13:08:39;26.80;99.90
44886;DHT22;36669;51.428;21.162;2022-08-01T13:11:08;27.30;99.90
44886;DHT22;36669;51.428;21.162;2022-08-01T13:13:49;27.80;99.90
44886;DHT22;36669;51.428;21.162;2022-08-01T13:16:24;27.70;99.30
44886;DHT22;36669;51.428;21.162;2022-08-01T13:18:55;27.60;99.90
44886;DHT22;36669;51.428;21.162;2022-08-01T13:21:25;27.30;98.90
44886;DHT22;36669;51.428;21.162;2022-08-01T13:24:15;26.60;99.90
44886;DHT22;36669;51.428;21.162;2022-08-01T13:26:50;26.60;99.90
44886;DHT22;36669;51.428;21.162;2022-08-01T13:29:20;26.50;99.90
44886;DHT22;36669;51.428;21.162;2022-08-01T13:31:49;26.90;99.90
44886;DHT22;36669;51.428;21.162;2022-08-01T13:34:17;26.90;99.90
44886;DHT22;36669;51.428;21.162;2022-08-01T13:36:44;27.10;99.90
44886;DHT22;36669;51.428;21.162;2022-08-01T13:39:10;26.90;99.90
44886;DHT22;36669;51.428;21.162;2022-08-01T13:41:37;26.50;99.70
44886;DHT22;36669;51.428;21.162;2022-08-01T13:44:04;26.60;99.70
44886;DHT22;36669;51.428;21.162;2022-08-01T13:46:31;26.80;99.90
44886;DHT22;36669;51.428;21.162;2022-08-01T13:48:59;26.90;99.00
44886;DHT22;36669;51.428;21.162;2022-08-01T13:51:25;27.10;99.70
44886;DHT22;36669;51.428;21.162;2022-08-01T13:53:53;27.20;97.80
44886;DHT22;36669;51.428;21.162;2022-08-01T13:56:19;27.70;97.90
44886;DHT22;36669;51.428;21.162;2022-08-01T13:58:47;27.60;97.40
44886;DHT22;36669;51.428;21.162;2022-08-01T14:01:16;27.50;97.50
44886;DHT22;36669;51.428;21.162;2022-08-01T14:03:43;28.30;97.40
44886;DHT22;36669;51.428;21.162;2022-08-01T14:06:13;28.70;95.60
44886;DHT22;36669;51.428;21.162;2022-08-01T14:08:42;29.10;95.10
44886;DHT22;36669;51.428;21.162;2022-08-01T14:11:18;29.70;93.90
44886;DHT22;36669;51.428;21.162;2022-08-01T14:13:45;30.00;92.40
44886;DHT22;36669;51.428;21.162;2022-08-01T14:16:12;30.10;91.10
44886;DHT22;36669;51.428;21.162;2022-08-01T14:18:37;29.50;90.60
44886;DHT22;36669;51.428;21.162;2022-08-01T14:21:04;28.90;90.80
44886;DHT22;36669;51.428;21.162;2022-08-01T14:23:31;27.70;93.60
44886;DHT22;36669;51.428;21.162;2022-08-01T14:25:58;27.50;93.80
44886;DHT22;36669;51.428;21.162;2022-08-01T14:28:25;28.60;94.20
44886;DHT22;36669;51.428;21.162;2022-08-01T14:30:53;29.60;92.20
44886;DHT22;36669;51.428;21.162;2022-08-01T14:33:19;29.40;91.00
44886;DHT22;36669;51.428;21.162;2022-08-01T14:35:46;28.50;91.10
44886;DHT22;36669;51.428;21.162;2022-08-01T14:38:12;27.70;92.90
44886;DHT22;36669;51.428;21.162;2022-08-01T14:40:39;26.80;94.80
44886;DHT22;36669;51.428;21.162;2022-08-01T14:43:06;26.40;96.20
44886;DHT22;36669;51.428;21.162;2022-08-01T14:45:33;26.00;98.70
44886;DHT22;36669;51.428;21.162;2022-08-01T14:48:02;25.90;99.90
44886;DHT22;36669;51.428;21.162;2022-08-01T14:50:29;26.00;99.90
44886;DHT22;36669;51.428;21.162;2022-08-01T14:52:57;26.20;99.90
44886;DHT22;36669;51.428;21.162;2022-08-01T14:55:25;26.00;99.90
44886;DHT22;36669;51.428;21.162;2022-08-01T14:57:53;26.00;99.90
44886;DHT22;36669;51.428;21.162;2022-08-01T15:00:21;26.20;99.90
44886;DHT22;36669;51.428;21.162;2022-08-01T15:02:48;26.50;99.90
44886;DHT22;36669;51.428;21.162;2022-08-01T15:05:15;26.80;99.90
44886;DHT22;36669;51.428;21.162;2022-08-01T15:07:45;26.90;99.90
44886;DHT22;36669;51.428;21.162;2022-08-01T15:10:14;27.50;99.90
44886;DHT22;36669;51.428;21.162;2022-08-01T15:12:42;27.50;98.70
44886;DHT22;36669;51.428;21.162;2022-08-01T15:15:09;27.30;98.30
44886;DHT22;36669;51.428;21.162;2022-08-01T15:17:36;26.90;98.30
44886;DHT22;36669;51.428;21.162;2022-08-01T15:20:05;26.50;99.20
44886;DHT22;36669;51.428;21.162;2022-08-01T15:22:33;26.40;99.90
44886;DHT22;36669;51.428;21.162;2022-08-01T15:25:01;25.50;99.90
44886;DHT22;36669;51.428;21.162;2022-08-01T15:27:30;25.50;99.90
44886;DHT22;36669;51.428;21.162;2022-08-01T15:29:57;25.80;99.90
44886;DHT22;36669;51.428;21.162;2022-08-01T15:32:23;25.90;99.90
44886;DHT22;36669;51.428;21.162;2022-08-01T15:34:49;25.80;99.90
44886;DHT22;36669;51.428;21.162;2022-08-01T15:37:15;26.00;99.90
44886;DHT22;36669;51.428;21.162;2022-08-01T15:39:44;26.10;99.90
44886;DHT22;36669;51.428;21.162;2022-08-01T15:42:12;25.60;99.90
44886;DHT22;36669;51.428;21.162;2022-08-01T15:44:40;25.60;99.90
44886;DHT22;36669;51.428;21.162;2022-08-01T15:47:08;26.40;99.90
44886;DHT22;36669;51.428;21.162;2022-08-01T15:49:39;26.80;99.90